Aviation Digital Data Service (ADDS)

Output produced by METARs form (1318 UTC 17 August 2019)
found at http://aviationweather.gov/metar/data/
 
KIPJ 171315Z AUTO 08005KT 10SM CLR 26/25 A3002 RMK AO2 T02560246
KIPJ 171255Z AUTO 09003KT 10SM CLR 25/24 A3002 RMK AO2 T02480244
KIPJ 171235Z AUTO 00000KT 10SM CLR 23/23 A3002 RMK AO2 T02340234